Time;durP1;ratioP1;P1;durP2;ratioP2;P2;SDS_P1;SDS_P2;PMS_P1;PMS_P2;Temp;Humidity;BMP_temperature;BMP_pressure;BME280_temperature;BME280_humidity;BME280_pressure;Samples;Min_cycle;Max_cycle;Signal;HPM_P1;HPM_P2
2023/12/22 00:01:21;;;;;;;17.63;1.15;;;;;;;5.64;100.00;99983.91;4982132;28;20061;-87
2023/12/22 00:03:46;;;;;;;19.77;1.58;;;;;;;5.64;100.00;99977.59;5008931;28;20043;-87
2023/12/22 00:06:12;;;;;;;18.70;2.17;;;;;;;5.66;100.00;99979.25;5025175;28;20432;-87
2023/12/22 00:08:38;;;;;;;19.60;1.73;;;;;;;5.69;100.00;99984.44;5017645;28;20110;-86
2023/12/22 00:11:04;;;;;;;12.50;1.40;;;;;;;5.69;100.00;100005.31;4991107;28;20060;-87
2023/12/22 00:13:29;;;;;;;22.42;1.67;;;;;;;5.68;100.00;100017.16;5016111;28;20072;-87
2023/12/22 00:15:55;;;;;;;24.38;1.95;;;;;;;5.67;100.00;100019.00;5013263;28;20498;-87
2023/12/22 00:18:20;;;;;;;20.50;1.90;;;;;;;5.71;100.00;100003.34;4979262;28;20037;-87
2023/12/22 00:20:46;;;;;;;6.97;1.15;;;;;;;5.66;100.00;100021.84;5000577;28;20037;-87
2023/12/22 00:23:11;;;;;;;16.80;1.50;;;;;;;5.65;100.00;100012.78;5003879;28;20120;-85
2023/12/22 00:25:36;;;;;;;20.48;3.30;;;;;;;5.66;100.00;100022.69;4983917;28;20021;-86
2023/12/22 00:28:02;;;;;;;14.43;1.65;;;;;;;5.63;100.00;99997.59;5002752;28;20038;-86
2023/12/22 00:30:27;;;;;;;19.40;1.63;;;;;;;5.62;100.00;100009.44;5013268;28;20475;-86
2023/12/22 00:32:53;;;;;;;21.30;2.03;;;;;;;5.55;100.00;100011.72;4982909;28;20121;-86
2023/12/22 00:35:18;;;;;;;11.52;1.60;;;;;;;5.50;100.00;100022.91;4985022;28;20034;-88
2023/12/22 00:37:43;;;;;;;16.40;1.73;;;;;;;5.53;100.00;100016.41;5017231;28;20071;-88
2023/12/22 00:40:10;;;;;;;9.80;1.10;;;;;;;5.60;100.00;100025.84;4978038;28;20033;-87
2023/12/22 00:42:35;;;;;;;14.20;1.33;;;;;;;5.60;100.00;100031.28;5009263;28;20030;-87
2023/12/22 00:45:01;;;;;;;13.60;1.33;;;;;;;5.59;100.00;100056.72;5020154;28;20041;-88
2023/12/22 00:47:26;;;;;;;11.50;1.67;;;;;;;5.63;100.00;100047.34;5014119;28;20029;-88
2023/12/22 00:49:52;;;;;;;8.88;1.20;;;;;;;5.60;100.00;100069.28;4997434;28;20028;-87
2023/12/22 00:52:17;;;;;;;14.05;1.48;;;;;;;5.59;100.00;100078.44;4999741;28;20037;-85
2023/12/22 00:54:42;;;;;;;15.73;1.45;;;;;;;5.50;100.00;100038.34;5024867;28;20601;-86
2023/12/22 00:57:08;;;;;;;9.82;1.35;;;;;;;5.58;100.00;100032.38;5004482;28;20506;-86
2023/12/22 00:59:33;;;;;;;14.32;1.40;;;;;;;5.52;100.00;100028.25;5013067;28;20225;-86
2023/12/22 01:01:59;;;;;;;11.18;1.10;;;;;;;5.55;100.00;100019.03;5018472;28;20034;-86
2023/12/22 01:04:24;;;;;;;18.88;1.38;;;;;;;5.52;100.00;100031.81;4996038;28;20033;-86
2023/12/22 01:06:49;;;;;;;24.38;2.00;;;;;;;5.46;100.00;100025.94;4989387;28;20120;-86
2023/12/22 01:09:15;;;;;;;17.70;1.38;;;;;;;5.44;100.00;100044.22;4988955;28;20032;-86
2023/12/22 01:11:41;;;;;;;19.67;1.33;;;;;;;5.45;100.00;100035.09;5000557;28;20029;-88
2023/12/22 01:14:07;;;;;;;20.65;1.55;;;;;;;5.36;100.00;100038.44;5009183;28;20051;-88
2023/12/22 01:16:33;;;;;;;19.65;1.52;;;;;;;5.32;100.00;100035.94;4996497;28;20037;-88
2023/12/22 01:18:58;;;;;;;14.10;1.38;;;;;;;5.33;100.00;100029.56;5011261;28;20026;-88
2023/12/22 01:21:23;;;;;;;16.33;1.75;;;;;;;5.31;100.00;100009.81;5006061;28;20091;-88
2023/12/22 01:23:49;;;;;;;12.68;1.35;;;;;;;5.27;100.00;100010.97;5013903;28;20038;-87
2023/12/22 01:26:14;;;;;;;25.55;2.10;;;;;;;5.22;100.00;100001.44;4998116;28;20107;-88
2023/12/22 01:28:40;;;;;;;17.92;2.22;;;;;;;5.19;100.00;100020.66;4996622;28;20081;-87
2023/12/22 01:31:05;;;;;;;23.35;2.33;;;;;;;5.15;100.00;100022.72;5013952;28;20037;-86
2023/12/22 01:33:30;;;;;;;25.25;1.73;;;;;;;5.23;100.00;100039.34;4983800;28;20034;-88
2023/12/22 01:35:56;;;;;;;18.38;1.95;;;;;;;5.32;100.00;100049.53;5012846;28;20041;-87
2023/12/22 01:38:21;;;;;;;15.20;1.95;;;;;;;5.49;100.00;100039.31;5002290;28;20440;-88
2023/12/22 01:40:49;;;;;;;16.10;1.60;;;;;;;5.59;100.00;100056.72;5034517;28;20034;-88
2023/12/22 01:43:16;;;;;;;21.77;2.42;;;;;;;5.70;100.00;100059.50;4999128;28;20514;-87
2023/12/22 01:45:44;;;;;;;10.40;1.33;;;;;;;5.76;100.00;100051.91;4996461;28;20495;-87
2023/12/22 01:48:10;;;;;;;14.93;2.03;;;;;;;5.77;100.00;100050.91;5004814;28;20029;-86
2023/12/22 01:50:36;;;;;;;24.73;1.92;;;;;;;5.69;100.00;100044.19;4981053;28;20081;-87
2023/12/22 01:53:02;;;;;;;21.00;1.50;;;;;;;5.75;100.00;100042.00;4980289;28;20093;-87
2023/12/22 01:55:28;;;;;;;27.77;2.03;;;;;;;5.72;100.00;100043.09;5013517;28;20034;-87
2023/12/22 01:57:53;;;;;;;21.42;2.08;;;;;;;5.70;100.00;100067.63;5015044;28;20030;-87
2023/12/22 02:00:19;;;;;;;24.08;1.83;;;;;;;5.71;100.00;100058.53;4988756;28;20043;-87
2023/12/22 02:02:45;;;;;;;14.18;1.90;;;;;;;5.70;100.00;100072.22;4983876;28;20030;-87
2023/12/22 02:05:11;;;;;;;19.35;2.30;;;;;;;5.65;100.00;100077.97;5022279;28;20087;-87
2023/12/22 02:07:41;;;;;;;17.02;2.13;;;;;;;5.66;100.00;100084.28;5002513;28;20048;-87
2023/12/22 02:10:08;;;;;;;24.20;3.08;;;;;;;5.64;100.00;100072.66;5018180;28;20118;-87
2023/12/22 02:12:34;;;;;;;25.13;2.38;;;;;;;5.69;100.00;100065.06;5002141;28;20368;-87
2023/12/22 02:15:00;;;;;;;33.45;2.53;;;;;;;5.65;100.00;100064.38;4973143;28;20074;-88
2023/12/22 02:17:32;;;;;;;26.48;2.88;;;;;;;5.66;100.00;100060.72;5005246;28;20057;-89
2023/12/22 02:19:58;;;;;;;29.48;2.50;;;;;;;5.75;100.00;100064.59;5012695;28;20052;-88
2023/12/22 02:22:24;;;;;;;19.20;2.00;;;;;;;5.71;100.00;100058.53;5000539;28;20116;-87
2023/12/22 02:24:49;;;;;;;18.63;2.03;;;;;;;5.71;100.00;100061.25;5002835;28;20487;-88
2023/12/22 02:27:36;;;;;;;19.55;2.47;;;;;;;5.79;100.00;100070.69;5008180;28;20115;-87
2023/12/22 02:30:08;;;;;;;36.03;3.92;;;;;;;5.81;100.00;100056.03;5008953;28;20083;-88
2023/12/22 02:32:44;;;;;;;34.08;2.88;;;;;;;5.91;100.00;100060.78;5019188;28;20033;-89
2023/12/22 02:35:19;;;;;;;26.48;2.30;;;;;;;6.04;100.00;100051.66;5023135;28;20034;-89
2023/12/22 02:37:49;;;;;;;20.52;1.95;;;;;;;6.06;100.00;100052.41;5008307;28;20037;-89
2023/12/22 02:40:15;;;;;;;21.63;2.28;;;;;;;5.92;100.00;100046.22;4994625;28;20025;-87
2023/12/22 02:42:41;;;;;;;17.92;1.80;;;;;;;5.92;100.00;100062.50;4994392;28;20033;-88
2023/12/22 02:45:14;;;;;;;23.50;2.70;;;;;;;5.94;100.00;100057.84;5028425;28;20398;-89
2023/12/22 02:47:39;;;;;;;14.95;1.83;;;;;;;5.97;100.00;100034.06;5018992;28;20025;-88
2023/12/22 02:50:06;;;;;;;18.70;1.90;;;;;;;5.99;100.00;100037.53;5029300;28;20084;-89
2023/12/22 02:52:32;;;;;;;18.35;1.30;;;;;;;6.00;100.00;100046.56;4998881;28;20038;-89
2023/12/22 02:54:58;;;;;;;22.77;2.33;;;;;;;6.14;100.00;100051.84;5021033;28;20511;-89
2023/12/22 02:57:23;;;;;;;19.65;1.77;;;;;;;6.13;100.00;100038.38;5017435;28;20105;-89
2023/12/22 02:59:49;;;;;;;23.38;2.30;;;;;;;6.12;100.00;100042.94;5001091;28;20041;-89
2023/12/22 03:02:14;;;;;;;17.85;2.45;;;;;;;6.21;100.00;100025.06;5003948;28;20034;-89
2023/12/22 03:04:40;;;;;;;17.17;2.05;;;;;;;6.27;100.00;100027.34;4980944;28;20548;-89
2023/12/22 03:07:05;;;;;;;17.27;1.65;;;;;;;6.22;100.00;100037.69;4990651;28;20523;-89
2023/12/22 03:09:32;;;;;;;26.85;2.85;;;;;;;6.29;100.00;100033.53;5019718;28;20055;-89
2023/12/22 03:12:01;;;;;;;16.80;1.85;;;;;;;6.32;100.00;100044.19;5013535;28;20056;-89
2023/12/22 03:14:32;;;;;;;21.35;2.20;;;;;;;6.46;100.00;100045.00;5002253;28;20053;-89
2023/12/22 03:17:01;;;;;;;24.98;2.47;;;;;;;6.43;100.00;100027.06;5043754;28;20032;-88
2023/12/22 03:19:27;;;;;;;17.15;1.60;;;;;;;6.31;100.00;100022.53;5040198;28;20033;-90
2023/12/22 03:21:52;;;;;;;14.70;1.75;;;;;;;6.30;100.00;100023.53;5019242;28;20038;-89
2023/12/22 03:24:19;;;;;;;22.00;2.00;;;;;;;6.29;100.00;100029.94;5015993;28;20072;-89
2023/12/22 03:26:45;;;;;;;21.92;1.67;;;;;;;6.32;100.00;100025.16;4999768;28;20026;-90
2023/12/22 03:29:10;;;;;;;22.58;2.13;;;;;;;6.19;100.00;100044.22;5009264;28;20030;-91
2023/12/22 03:31:36;;;;;;;12.18;1.40;;;;;;;6.17;100.00;100051.63;4991463;28;20590;-90
2023/12/22 03:34:01;;;;;;;19.52;1.75;;;;;;;6.25;100.00;100042.91;4999694;28;20483;-91
2023/12/22 03:36:27;;;;;;;13.05;1.50;;;;;;;6.09;100.00;100043.16;4985903;28;20112;-91
2023/12/22 03:38:52;;;;;;;25.95;2.15;;;;;;;6.01;100.00;100043.72;5002325;28;20036;-91
2023/12/22 03:41:17;;;;;;;18.38;1.63;;;;;;;5.98;100.00;100041.22;5005707;28;20030;-91
2023/12/22 03:43:43;;;;;;;21.95;2.67;;;;;;;6.03;100.00;100055.38;5006222;28;20040;-90
2023/12/22 03:46:08;;;;;;;21.23;1.85;;;;;;;6.05;100.00;100055.22;4982711;28;20026;-91
2023/12/22 03:48:35;;;;;;;20.75;2.08;;;;;;;6.11;100.00;100062.94;4988350;28;20096;-89
2023/12/22 03:51:00;;;;;;;13.32;1.73;;;;;;;6.11;100.00;100062.09;5010008;28;20038;-89
2023/12/22 03:53:26;;;;;;;21.30;2.00;;;;;;;6.06;100.00;100056.97;5014646;28;20021;-89
2023/12/22 03:55:51;;;;;;;20.83;3.03;;;;;;;6.12;100.00;100048.38;5005186;28;20057;-89
2023/12/22 03:58:16;;;;;;;28.25;2.75;;;;;;;6.14;100.00;100059.16;5019238;28;20030;-89
2023/12/22 04:00:42;;;;;;;23.70;2.15;;;;;;;6.16;100.00;100049.03;5012411;28;20132;-89
2023/12/22 04:03:07;;;;;;;19.27;2.33;;;;;;;6.17;100.00;100048.06;5018653;28;20107;-89
2023/12/22 04:05:33;;;;;;;15.60;2.75;;;;;;;6.22;100.00;100060.31;4981042;28;20030;-89
2023/12/22 04:07:58;;;;;;;22.48;2.50;;;;;;;6.25;100.00;100051.06;4998830;28;20030;-90
2023/12/22 04:10:23;;;;;;;25.13;2.53;;;;;;;6.30;100.00;100061.59;4998872;28;20022;-89
2023/12/22 04:12:49;;;;;;;21.23;1.83;;;;;;;6.38;100.00;100064.63;5005781;28;20034;-89
2023/12/22 04:15:14;;;;;;;16.25;1.73;;;;;;;6.39;100.00;100055.47;5003190;28;20061;-89
2023/12/22 04:17:40;;;;;;;20.70;2.78;;;;;;;6.43;100.00;100057.84;4980752;28;20038;-89
2023/12/22 04:20:07;;;;;;;19.15;1.90;;;;;;;6.52;100.00;100060.84;4999602;28;20026;-90
2023/12/22 04:22:32;;;;;;;24.80;1.85;;;;;;;6.48;100.00;100049.34;5001736;28;20037;-89
2023/12/22 04:24:58;;;;;;;22.58;1.80;;;;;;;6.54;100.00;100067.03;5023318;28;20045;-91
2023/12/22 04:27:23;;;;;;;23.60;2.00;;;;;;;6.41;100.00;100043.50;5025587;28;20032;-91
2023/12/22 04:29:49;;;;;;;14.05;1.55;;;;;;;6.54;100.00;100062.50;4985290;28;20061;-91
2023/12/22 04:32:14;;;;;;;17.67;2.25;;;;;;;6.63;100.00;100060.91;4992670;28;20037;-84
2023/12/22 04:34:40;;;;;;;12.52;1.52;;;;;;;6.78;100.00;100081.50;5000854;28;20022;-84
2023/12/22 04:37:05;;;;;;;25.73;2.72;;;;;;;6.78;100.00;100069.75;5014159;28;20105;-85
2023/12/22 04:39:30;;;;;;;9.40;1.35;;;;;;;6.83;100.00;100075.72;4988426;28;20430;-84
2023/12/22 04:41:56;;;;;;;21.88;2.50;;;;;;;6.75;100.00;100089.03;5000365;28;20038;-84
2023/12/22 04:44:21;;;;;;;20.55;1.80;;;;;;;6.76;100.00;100074.47;4998373;28;20414;-86
2023/12/22 04:46:46;;;;;;;18.88;2.05;;;;;;;6.93;100.00;100089.50;4980289;28;20034;-84
2023/12/22 04:49:12;;;;;;;21.88;3.28;;;;;;;7.07;100.00;100089.31;4994592;28;20022;-84
2023/12/22 04:51:37;;;;;;;7.55;1.10;;;;;;;7.06;100.00;100079.41;4992620;28;20028;-84
2023/12/22 04:54:03;;;;;;;21.58;1.85;;;;;;;7.13;100.00;100091.56;4996991;28;20531;-83
2023/12/22 04:56:28;;;;;;;18.30;1.75;;;;;;;7.12;100.00;100092.53;4996987;28;20928;-84
2023/12/22 04:58:53;;;;;;;15.10;1.40;;;;;;;7.15;100.00;100083.28;5000034;28;20033;-84
2023/12/22 05:01:19;;;;;;;19.92;2.03;;;;;;;7.09;100.00;100075.59;5003049;28;20150;-84
2023/12/22 05:03:44;;;;;;;22.23;2.40;;;;;;;7.05;100.00;100091.28;4980142;28;20034;-84
2023/12/22 05:06:10;;;;;;;17.02;1.25;;;;;;;7.04;100.00;100096.84;5001814;28;20022;-84
2023/12/22 05:08:36;;;;;;;20.67;1.90;;;;;;;7.06;100.00;100098.44;5007133;28;20482;-83
2023/12/22 05:11:01;;;;;;;13.07;1.95;;;;;;;7.05;100.00;100102.19;4983388;28;20117;-85
2023/12/22 05:13:26;;;;;;;16.02;1.77;;;;;;;7.11;100.00;100103.53;4977368;28;20029;-85
2023/12/22 05:15:52;;;;;;;12.50;1.50;;;;;;;7.09;100.00;100100.94;5039206;28;20056;-84
2023/12/22 05:18:17;;;;;;;12.50;1.50;;;;;;;7.04;100.00;100105.00;5005024;28;20054;-83
2023/12/22 05:20:43;;;;;;;18.27;1.60;;;;;;;7.04;100.00;100094.13;5036117;28;20581;-84
2023/12/22 05:23:09;;;;;;;19.85;2.00;;;;;;;7.10;100.00;100096.34;4982654;28;20111;-84
2023/12/22 05:25:34;;;;;;;19.90;2.03;;;;;;;7.12;100.00;100089.81;5016561;28;20450;-84
2023/12/22 05:27:59;;;;;;;19.35;2.03;;;;;;;7.10;100.00;100099.97;4999878;28;20033;-83
2023/12/22 05:30:25;;;;;;;13.10;1.63;;;;;;;7.10;100.00;100093.63;5001663;28;20022;-84
2023/12/22 05:32:50;;;;;;;14.57;1.52;;;;;;;7.21;100.00;100111.88;5015015;28;20506;-84
2023/12/22 05:35:16;;;;;;;8.82;1.65;;;;;;;7.19;100.00;100103.81;4996204;28;20113;-83
2023/12/22 05:37:41;;;;;;;26.20;2.78;;;;;;;7.22;100.00;100103.59;4987627;28;20647;-84
2023/12/22 05:40:07;;;;;;;21.15;2.25;;;;;;;7.28;100.00;100121.28;4980306;28;20165;-84
2023/12/22 05:42:33;;;;;;;23.30;1.63;;;;;;;7.33;100.00;100100.91;4998861;28;20484;-84
2023/12/22 05:44:58;;;;;;;12.80;1.90;;;;;;;7.36;100.00;100088.88;5004499;28;20483;-84
2023/12/22 05:47:24;;;;;;;17.65;2.13;;;;;;;7.39;100.00;100087.78;4987132;28;20479;-85
2023/12/22 05:49:49;;;;;;;16.55;1.80;;;;;;;7.35;100.00;100098.91;5016102;28;20048;-84
2023/12/22 05:52:14;;;;;;;8.50;1.25;;;;;;;7.37;100.00;100085.19;4983744;28;20554;-84
2023/12/22 05:54:40;;;;;;;13.77;1.42;;;;;;;7.23;100.00;100091.72;5003267;28;20029;-84
2023/12/22 05:57:06;;;;;;;8.88;1.17;;;;;;;7.18;100.00;100085.72;5002118;28;20030;-84
2023/12/22 05:59:32;;;;;;;9.23;0.85;;;;;;;7.18;100.00;100073.00;4978736;28;20037;-84
2023/12/22 06:01:59;;;;;;;10.80;1.77;;;;;;;7.04;100.00;100089.53;4972885;28;20029;-84
2023/12/22 06:04:25;;;;;;;17.75;1.98;;;;;;;7.06;100.00;100106.59;4993924;28;20495;-84
2023/12/22 06:06:50;;;;;;;14.48;1.50;;;;;;;6.97;100.00;100105.47;5012383;28;20045;-84
2023/12/22 06:09:18;;;;;;;16.52;1.23;;;;;;;7.07;100.00;100113.81;5008992;28;20026;-84
2023/12/22 06:11:43;;;;;;;18.70;1.73;;;;;;;7.11;100.00;100101.69;4981820;28;20030;-84
2023/12/22 06:14:09;;;;;;;19.58;2.15;;;;;;;7.13;100.00;100098.84;5028099;28;20454;-84
2023/12/22 06:16:34;;;;;;;13.95;1.67;;;;;;;7.16;100.00;100088.56;4986077;28;20041;-84
2023/12/22 06:18:59;;;;;;;21.58;1.95;;;;;;;7.22;100.00;100097.28;4998291;28;20120;-83
2023/12/22 06:21:25;;;;;;;23.15;2.72;;;;;;;7.33;100.00;100070.09;4992867;28;20030;-84
2023/12/22 06:23:50;;;;;;;16.73;2.17;;;;;;;7.34;100.00;100090.88;4995371;28;20546;-84
2023/12/22 06:26:16;;;;;;;32.33;3.65;;;;;;;7.34;100.00;100090.88;5026634;28;20041;-84
2023/12/22 06:28:41;;;;;;;25.27;3.40;;;;;;;7.42;100.00;100076.66;4998227;28;20061;-83
2023/12/22 06:31:08;;;;;;;17.23;2.10;;;;;;;7.45;100.00;100088.16;4992735;28;20163;-84
2023/12/22 06:33:33;;;;;;;23.27;2.38;;;;;;;7.40;100.00;100103.16;5014836;28;20427;-84
2023/12/22 06:35:59;;;;;;;23.58;2.60;;;;;;;7.26;100.00;100096.91;5017567;28;20030;-84
2023/12/22 06:38:24;;;;;;;26.88;2.85;;;;;;;7.10;100.00;100090.91;5000174;28;20030;-85
2023/12/22 06:40:50;;;;;;;24.20;2.35;;;;;;;7.03;100.00;100104.13;4988918;28;20117;-87
2023/12/22 06:43:15;;;;;;;18.38;2.38;;;;;;;7.01;100.00;100119.72;4992056;28;20038;-84
2023/12/22 06:45:41;;;;;;;21.75;2.75;;;;;;;6.96;100.00;100136.38;5017013;28;20034;-84
2023/12/22 06:48:07;;;;;;;26.63;3.08;;;;;;;6.94;100.00;100129.34;4990954;28;20026;-84
2023/12/22 06:50:33;;;;;;;25.55;3.35;;;;;;;6.94;100.00;100130.19;4994079;28;20057;-83
2023/12/22 06:52:58;;;;;;;24.50;3.00;;;;;;;6.90;100.00;100136.84;5012273;28;20026;-88
2023/12/22 06:55:24;;;;;;;38.03;3.58;;;;;;;6.89;100.00;100126.09;4979977;28;20474;-86
2023/12/22 06:57:49;;;;;;;29.52;3.40;;;;;;;6.84;100.00;100115.56;4998894;28;20096;-86
2023/12/22 07:00:15;;;;;;;36.80;3.17;;;;;;;6.91;100.00;100116.81;4989048;28;20042;-86
2023/12/22 07:02:41;;;;;;;47.10;4.03;;;;;;;6.98;100.00;100115.38;4988236;28;20081;-86
2023/12/22 07:05:09;;;;;;;37.17;4.55;;;;;;;7.12;100.00;100119.75;5013783;28;20034;-89
2023/12/22 07:07:36;;;;;;;49.10;3.80;;;;;;;7.19;100.00;100117.44;5016276;28;20030;-87
2023/12/22 07:10:03;;;;;;;48.80;5.22;;;;;;;7.17;100.00;100112.09;5021033;28;20029;-93
2023/12/22 07:12:28;;;;;;;35.83;4.25;;;;;;;7.23;100.00;100108.06;4986069;28;20176;-84
2023/12/22 07:14:54;;;;;;;46.20;5.88;;;;;;;7.22;100.00;100119.06;4990267;28;20627;-89
2023/12/22 07:17:19;;;;;;;47.42;4.30;;;;;;;7.29;100.00;100109.41;5004167;28;20034;-88
2023/12/22 07:19:45;;;;;;;49.50;5.63;;;;;;;7.29;100.00;100098.53;5019757;28;20029;-92
2023/12/22 07:22:10;;;;;;;53.13;6.38;;;;;;;7.32;100.00;100093.69;5027899;28;20022;-90
2023/12/22 07:24:36;;;;;;;52.03;4.80;;;;;;;7.32;100.00;100095.56;5003961;28;20049;-93
2023/12/22 07:27:01;;;;;;;40.47;4.75;;;;;;;7.39;100.00;100094.09;4991995;28;20481;-86
2023/12/22 07:29:26;;;;;;;49.10;5.15;;;;;;;7.46;100.00;100089.91;4987889;28;20077;-88
2023/12/22 07:31:52;;;;;;;52.72;5.35;;;;;;;7.46;100.00;100097.19;5019148;28;20032;-87
2023/12/22 07:34:18;;;;;;;51.90;5.80;;;;;;;7.49;100.00;100095.13;5017421;28;20052;-85
2023/12/22 07:36:44;;;;;;;43.35;5.55;;;;;;;7.59;100.00;100083.47;4985226;28;20098;-87
2023/12/22 07:39:10;;;;;;;47.60;4.78;;;;;;;7.63;100.00;100098.63;5008482;28;20068;-87
2023/12/22 07:41:36;;;;;;;44.33;4.97;;;;;;;7.66;100.00;100101.97;5026171;28;20022;-89
2023/12/22 07:44:01;;;;;;;44.15;5.18;;;;;;;7.76;100.00;100103.97;4999335;28;20455;-89
2023/12/22 07:46:28;;;;;;;32.25;4.20;;;;;;;7.75;100.00;100099.50;4998568;28;20028;-90
2023/12/22 07:48:54;;;;;;;41.88;4.82;;;;;;;7.81;100.00;100101.72;5005306;28;20030;-90
2023/12/22 07:51:20;;;;;;;38.30;5.03;;;;;;;7.91;100.00;100110.91;5003336;28;20018;-89
2023/12/22 07:53:45;;;;;;;47.38;5.18;;;;;;;7.91;100.00;100108.19;5023614;28;20037;-89
2023/12/22 07:56:11;;;;;;;54.45;5.97;;;;;;;7.83;100.00;100097.88;5040741;28;20036;-90
2023/12/22 07:58:37;;;;;;;37.00;4.55;;;;;;;7.83;100.00;100091.56;5052077;28;20034;-89
2023/12/22 08:01:05;;;;;;;42.65;4.35;;;;;;;7.96;100.00;100088.72;5030049;28;20044;-89
2023/12/22 08:03:31;;;;;;;45.92;4.90;;;;;;;7.98;100.00;100094.91;5033409;28;20029;-85
2023/12/22 08:05:56;;;;;;;33.75;3.75;;;;;;;7.97;100.00;100098.63;5042608;28;20078;-90
2023/12/22 08:08:21;;;;;;;41.80;5.25;;;;;;;7.86;100.00;100099.50;4999425;28;20033;-87
2023/12/22 08:10:48;;;;;;;38.80;4.72;;;;;;;7.97;100.00;100098.63;5019154;28;20025;-85
2023/12/22 08:13:13;;;;;;;44.28;5.45;;;;;;;7.91;100.00;100070.88;5012821;28;20101;-83
2023/12/22 08:15:39;;;;;;;29.10;4.20;;;;;;;8.03;100.00;100088.09;5026605;28;20528;-88
2023/12/22 08:18:04;;;;;;;44.42;5.38;;;;;;;7.99;100.00;100074.84;4996116;28;20085;-89
2023/12/22 08:20:30;;;;;;;42.30;4.88;;;;;;;8.08;100.00;100085.88;4995076;28;20037;-88
2023/12/22 08:22:55;;;;;;;33.13;3.65;;;;;;;8.07;100.00;100078.69;4991126;28;20034;-89
2023/12/22 08:25:21;;;;;;;36.47;4.43;;;;;;;8.11;100.00;100090.19;5022104;28;20025;-89
2023/12/22 08:27:47;;;;;;;29.10;3.55;;;;;;;8.21;100.00;100073.97;4997367;28;20026;-89
2023/12/22 08:30:12;;;;;;;39.70;5.28;;;;;;;8.21;100.00;100095.78;5017358;28;20112;-89
2023/12/22 08:32:38;;;;;;;37.08;3.42;;;;;;;8.23;100.00;100088.31;5004564;28;20023;-90
2023/12/22 08:35:04;;;;;;;27.67;2.75;;;;;;;8.20;100.00;100085.84;5043148;28;20025;-90
2023/12/22 08:37:30;;;;;;;42.53;3.63;;;;;;;8.31;100.00;100079.53;5012337;28;20041;-91
2023/12/22 08:39:56;;;;;;;30.25;3.13;;;;;;;8.32;100.00;100082.13;5004089;28;20142;-90
2023/12/22 08:42:22;;;;;;;34.15;3.17;;;;;;;8.33;100.00;100077.53;5013130;28;20050;-90
2023/12/22 08:44:48;;;;;;;27.77;3.72;;;;;;;8.33;100.00;100078.41;5031356;28;20032;-90
2023/12/22 08:47:13;;;;;;;31.95;3.58;;;;;;;8.37;100.00;100077.16;5039362;28;20029;-90
2023/12/22 08:49:39;;;;;;;31.17;3.78;;;;;;;8.39;100.00;100066.13;5004247;28;20030;-90
2023/12/22 08:52:04;;;;;;;28.52;3.17;;;;;;;8.37;100.00;100065.38;5017313;28;20029;-90
2023/12/22 08:54:30;;;;;;;28.55;2.40;;;;;;;8.43;100.00;100057.59;4996903;28;20023;-90
2023/12/22 08:56:56;;;;;;;31.27;3.47;;;;;;;8.51;100.00;100048.78;5033876;28;20021;-91
2023/12/22 08:59:21;;;;;;;24.33;3.08;;;;;;;8.51;100.00;100062.41;5017501;28;20041;-90
2023/12/22 09:01:47;;;;;;;28.90;2.40;;;;;;;8.53;100.00;100052.25;5004363;28;20025;-90
2023/12/22 09:04:12;;;;;;;24.05;3.58;;;;;;;8.54;100.00;100056.69;4976045;28;20022;-90
2023/12/22 09:06:39;;;;;;;18.08;2.22;;;;;;;8.61;100.00;100049.72;5038553;28;20048;-90
2023/12/22 09:09:05;;;;;;;15.05;2.22;;;;;;;8.54;100.00;100034.84;5006237;28;20061;-90
2023/12/22 09:11:30;;;;;;;20.25;1.80;;;;;;;8.59;100.00;100043.53;5014570;28;20067;-93
2023/12/22 09:13:56;;;;;;;19.83;2.80;;;;;;;8.56;100.00;100062.91;4986923;28;20026;-93
2023/12/22 09:16:22;;;;;;;15.73;1.77;;;;;;;8.64;100.00;100054.94;5032705;28;20281;-93
2023/12/22 09:18:49;;;;;;;26.67;2.45;;;;;;;8.61;100.00;100054.34;5008439;28;20372;-94
2023/12/22 09:21:15;;;;;;;13.63;1.75;;;;;;;8.59;100.00;100059.03;5003977;28;20660;-93
2023/12/22 09:23:44;;;;;;;12.32;1.50;;;;;;;8.67;100.00;100048.34;5019601;28;20056;-93
2023/12/22 09:26:09;;;;;;;15.02;2.55;;;;;;;8.62;100.00;100042.41;5006595;28;20026;-93
2023/12/22 09:28:35;;;;;;;13.40;2.15;;;;;;;8.68;100.00;100046.50;4998974;28;20071;-93
2023/12/22 09:31:01;;;;;;;11.18;2.92;;;;;;;8.71;100.00;100047.09;5001009;28;20033;-93
2023/12/22 09:33:26;;;;;;;14.57;2.75;;;;;;;8.66;100.00;100041.16;4993431;28;20033;-94
2023/12/22 09:35:52;;;;;;;10.63;1.10;;;;;;;8.69;100.00;100043.63;4993719;28;20179;-94
2023/12/22 09:38:17;;;;;;;14.25;1.88;;;;;;;8.72;100.00;100042.50;4987880;28;20022;-94
2023/12/22 09:40:42;;;;;;;11.18;1.40;;;;;;;8.64;100.00;100048.59;5000917;28;20026;-93
2023/12/22 09:43:08;;;;;;;13.70;1.67;;;;;;;8.71;100.00;100048.97;4987264;28;20026;-93
2023/12/22 09:45:35;;;;;;;15.52;1.95;;;;;;;8.71;100.00;100033.44;5009012;28;20033;-93
2023/12/22 09:48:03;;;;;;;10.75;1.13;;;;;;;8.75;100.00;100034.06;5016258;28;20025;-91
2023/12/22 09:50:30;;;;;;;7.90;1.23;;;;;;;8.76;100.00;100041.25;5042876;28;20006;-95
2023/12/22 09:52:55;;;;;;;5.05;1.00;;;;;;;8.74;100.00;100022.28;5015167;28;20089;-94
2023/12/22 09:55:26;;;;;;;6.68;1.33;;;;;;;8.87;100.00;100033.03;5028699;28;20014;-95
2023/12/22 09:58:00;;;;;;;8.00;1.13;;;;;;;8.86;100.00;100031.28;5004030;28;20170;-96
2023/12/22 10:00:28;;;;;;;4.65;1.05;;;;;;;8.89;100.00;100017.38;5020928;28;20030;-95
2023/12/22 10:02:54;;;;;;;6.53;0.90;;;;;;;8.87;100.00;100029.41;5021940;28;20113;-95
2023/12/22 10:05:19;;;;;;;9.85;1.02;;;;;;;8.97;100.00;100030.38;4985574;28;20053;-95
2023/12/22 10:07:47;;;;;;;10.15;1.27;;;;;;;8.97;100.00;100027.63;4998048;28;20060;-96
2023/12/22 10:10:13;;;;;;;4.13;0.80;;;;;;;8.98;100.00;100016.56;5017857;28;20454;-93
2023/12/22 10:12:40;;;;;;;10.45;1.15;;;;;;;9.19;100.00;100043.03;5004753;28;20090;-94
2023/12/22 10:15:07;;;;;;;3.30;0.90;;;;;;;9.28;100.00;100030.41;5021080;28;20052;-93
2023/12/22 10:17:33;;;;;;;7.50;1.05;;;;;;;9.22;100.00;100011.84;5024644;28;20029;-94
2023/12/22 10:19:59;;;;;;;7.90;1.45;;;;;;;9.25;100.00;100017.03;4986578;28;20029;-94
2023/12/22 10:22:24;;;;;;;7.38;0.98;;;;;;;9.20;100.00;100021.03;4984578;28;20030;-92
2023/12/22 10:24:50;;;;;;;6.72;0.85;;;;;;;9.30;100.00;100017.53;5004647;28;20038;-94
2023/12/22 10:27:23;;;;;;;5.15;0.65;;;;;;;9.22;100.00;100018.19;4993031;28;20033;-93
2023/12/22 10:29:56;;;;;;;8.25;0.80;;;;;;;9.27;100.00;100015.91;5002179;28;20057;-95
2023/12/22 10:32:22;;;;;;;5.80;0.90;;;;;;;9.29;100.00;100013.91;5027493;28;20034;-92
2023/12/22 10:34:50;;;;;;;6.00;0.90;;;;;;;9.29;100.00;100007.59;5026220;28;20037;-92
2023/12/22 10:37:16;;;;;;;4.93;0.80;;;;;;;9.30;100.00;100001.13;4992390;28;20034;-95
2023/12/22 10:39:41;;;;;;;10.95;1.15;;;;;;;9.33;100.00;100000.84;4991722;28;20033;-95
2023/12/22 10:42:07;;;;;;;6.38;0.98;;;;;;;9.34;100.00;99997.13;4992221;28;21313;-92
2023/12/22 10:44:32;;;;;;;8.80;1.75;;;;;;;9.44;100.00;100013.56;4979915;28;20034;-93
2023/12/22 10:47:00;;;;;;;4.65;0.80;;;;;;;9.47;100.00;100013.28;4998299;28;20030;-92
2023/12/22 10:49:26;;;;;;;7.00;1.17;;;;;;;9.54;100.00;100014.47;5013227;28;20372;-93
2023/12/22 10:51:52;;;;;;;5.13;0.73;;;;;;;9.50;100.00;100024.81;5009265;28;20033;-93
2023/12/22 10:54:19;;;;;;;4.78;0.98;;;;;;;9.47;100.00;100005.09;5004894;28;20038;-96
2023/12/22 10:56:45;;;;;;;7.38;0.93;;;;;;;9.60;100.00;100022.13;5012117;28;20507;-95
2023/12/22 10:59:10;;;;;;;9.00;1.33;;;;;;;9.64;100.00;100022.72;5012119;28;20145;-94
2023/12/22 11:01:38;;;;;;;3.97;0.90;;;;;;;9.68;100.00;100032.41;5015098;28;20033;-94
2023/12/22 11:04:06;;;;;;;3.25;0.90;;;;;;;9.70;100.00;100008.50;5008947;28;20029;-96
2023/12/22 11:06:37;;;;;;;5.40;0.85;;;;;;;9.69;100.00;100010.41;4997131;28;20029;-96
2023/12/22 11:09:08;;;;;;;6.15;0.77;;;;;;;9.77;100.00;100015.16;5011395;28;20144;-96
2023/12/22 11:11:35;;;;;;;3.30;0.77;;;;;;;9.76;100.00;99994.31;5027182;28;20550;-96
2023/12/22 11:14:01;;;;;;;7.18;1.00;;;;;;;9.79;100.00;100012.28;5033319;28;20076;-95